Sincerity Ace — 3FFD7 — position and weather

sailwx.info

Track history (hours):
 
Tides and Currents Weather Stations Pressure Air Temp Water Temp Dewpoint Dewpoint Depression Visibility Wind Speed Wind Dir Waves Ship Positions

Sincerity Ace

Last reported at 2015-Mar-13 08:03 UTC. Time now 2015-Mar-30 10:42 UTC.
Position N 36°36' E 014°43'.
Warning: this ship's position is 17 days out of date.

Length 200 m; draft 9.6 m.

Type: Cargo ship. MMSI: 351690000.

Date/timePositionNaut miles runAvg speedWind from/ knotsBaromVisibWave heightAir tempDewpointWater temp
2015-Mar-13 08:03N 36°36' E 014°43'918.6
2015-Mar-13 07:33N 36°39' E 014°32'1918.6
2015-Mar-13 06:33N 36°47' E 014°11'1918.8
2015-Mar-13 05:33N 36°56' E 013°50'7618.6
2015-Mar-13 01:28N 37°30' E 012°25'17717.8
2015-Mar-12 15:30N 38°34' E 008°55'1817.7
2015-Mar-12 14:28N 38°41' E 008°34'1818.0
2015-Mar-12 13:29N 38°48' E 008°13'18918.3
2015-Mar-12 03:09N 40°16' E 004°36'1118.0
2015-Mar-12 02:33N 40°21' E 004°24'4618.7
2015-Mar-12 00:07N 40°43' E 003°31'1018.6
2015-Mar-11 23:33N 40°48' E 003°19'1818.2
2015-Mar-11 22:33N 40°56' E 002°57'1818.3
2015-Mar-11 21:33N 41°05' E 002°37'1918.4
2015-Mar-11 20:33N 41°15' E 002°15'7 7.4
2015-Mar-11 19:33N 41°20' E 002°09'0 0.1
2015-Mar-11 18:33N 41°20' E 002°09'0 0.0
2015-Mar-11 17:27N 41°20' E 002°09'0 0.0
2015-Mar-11 16:33N 41°20' E 002°09'0 0.0
2015-Mar-11 15:21N 41°20' E 002°09'0 0.0
2015-Mar-11 14:33N 41°20' E 002°09'0 0.0
2015-Mar-11 13:15N 41°20' E 002°09'0 0.0
2015-Mar-11 12:27N 41°20' E 002°09'0 0.0
2015-Mar-11 11:33N 41°20' E 002°09'1 0.8
2015-Mar-11 10:33N 41°21' E 002°10'6 6.4
2015-Mar-11 09:33N 41°16' E 002°16'1 1.0
2015-Mar-11 08:33N 41°16' E 002°17'1 0.6
2015-Mar-11 07:34N 41°15' E 002°16'1 0.7
2015-Mar-11 06:33N 41°15' E 002°15'1 1.0
2015-Mar-11 05:32N 41°14' E 002°15'1 0.8
2015-Mar-11 04:33N 41°13' E 002°14'1 0.8
2015-Mar-11 03:33N 41°12' E 002°14'1 0.7
2015-Mar-11 02:33N 41°12' E 002°14'1 0.8
2015-Mar-11 01:33N 41°11' E 002°14'1 0.6
2015-Mar-11 00:33N 41°11' E 002°13'1 0.8
2015-Mar-10 23:33N 41°11' E 002°12'5 4.5
2015-Mar-10 22:33N 41°09' E 002°07'1616.4
2015-Mar-10 21:33N 40°54' E 001°57'1717.3
2015-Mar-10 20:33N 40°39' E 001°46'1717.3
2015-Mar-10 19:33N 40°24' E 001°36'1717.0
2015-Mar-10 18:33N 40°09' E 001°26'1717.2
2015-Mar-10 17:33N 39°53' E 001°15'1817.8
2015-Mar-10 16:33N 39°38' E 001°04'1817.8
2015-Mar-10 15:33N 39°22' E 000°54'1818.0
2015-Mar-10 14:33N 39°06' E 000°44'3517.6
2015-Mar-10 12:33N 38°35' E 000°21'1717.4
2015-Mar-10 11:33N 38°20' E 000°09'1717.3
2015-Mar-10 10:33N 38°05' W 000°01'1717.1
2015-Mar-10 09:33N 37°52' W 000°15'1717.1
2015-Mar-10 08:33N 37°38' W 000°27'1616.5
2015-Mar-10 07:33N 37°26' W 000°41'1717.3
2015-Mar-10 06:33N 37°14' W 000°57'1817.6
2015-Mar-10 05:33N 37°03' W 001°14'1817.8
2015-Mar-10 04:33N 36°51' W 001°31'18417.6
2015-Mar-09 18:04N 35°60' W 005°10'1020.0
2015-Mar-09 17:33N 35°58' W 005°23'5317.2
2015-Mar-09 14:30N 35°56' W 006°28'1617.3
2015-Mar-09 13:33N 35°60' W 006°47'1717.2
2015-Mar-09 12:33N 36°05' W 007°08'1717.4
2015-Mar-09 11:33N 36°10' W 007°28'1717.2
2015-Mar-09 10:33N 36°14' W 007°49'1717.2
2015-Mar-09 09:33N 36°19' W 008°09'1716.9
2015-Mar-09 08:33N 36°23' W 008°30'1717.0
2015-Mar-09 07:33N 36°28' W 008°50'1717.1
2015-Mar-09 06:33N 36°34' W 009°10'1616.2
2015-Mar-09 05:33N 36°44' W 009°26'1717.2
2015-Mar-09 04:33N 36°59' W 009°36'1717.5
2015-Mar-09 03:33N 37°16' W 009°41'1817.8
2015-Mar-09 02:33N 37°34' W 009°46'1717.2
2015-Mar-09 01:33N 37°50' W 009°51'1817.4
2015-Mar-09 00:33N 38°07' W 009°56'1817.9
2015-Mar-08 23:33N 38°25' W 010°01'1717.4
2015-Mar-08 22:33N 38°41' W 010°07'1917.6
2015-Mar-08 21:28N 39°00' W 010°08'1617.6
2015-Mar-08 20:33N 39°17' W 010°09'1717.3
2015-Mar-08 19:33N 39°34' W 010°09'1817.5
2015-Mar-08 18:31N 39°52' W 010°09'7017.6
2015-Mar-08 14:33N 41°02' W 010°09'4017.7
2015-Mar-08 12:18N 41°42' W 010°07'19916.9
2015-Mar-08 00:33N 44°54' W 008°56'1716.8
2015-Mar-07 23:33N 45°09' W 008°44'1716.7
2015-Mar-07 22:33N 45°23' W 008°33'5117.1
2015-Mar-07 19:33N 46°09' W 007°59'1717.1
2015-Mar-07 18:33N 46°24' W 007°47'2017.2
2015-Mar-07 17:24N 46°42' W 007°35'4916.9
2015-Mar-07 14:29N 47°25' W 007°00'9117.1
2015-Mar-07 09:11N 48°44' W 005°55'4115.5
2015-Mar-07 06:33N 49°10' W 005°08'13215.7
2015-Mar-06 22:09N 50°11' W 002°07'813.8
2015-Mar-06 21:33N 50°15' W 001°55'1813.6
2015-Mar-06 20:15N 50°23' W 001°31'1014.1
2015-Mar-06 19:33N 50°28' W 001°18'1514.5
2015-Mar-06 18:33N 50°36' W 000°59'8 7.8
2015-Mar-06 17:33N 50°44' W 001°03'1010.1
2015-Mar-06 16:31N 50°48' W 001°18'6 6.5
2015-Mar-06 15:33N 50°53' W 001°24'0 0.0
2015-Mar-06 14:33N 50°53' W 001°24'0 0.0
2015-Mar-06 13:30N 50°53' W 001°24'0 0.0
2015-Mar-06 12:33N 50°53' W 001°24'0 0.0
2015-Mar-06 11:30N 50°53' W 001°24'0 0.0
2015-Mar-06 10:33N 50°53' W 001°24'0 0.0
2015-Mar-06 09:30N 50°53' W 001°24'0 0.0
2015-Mar-06 08:33N 50°53' W 001°24'0 0.0
2015-Mar-06 07:33N 50°53' W 001°24'0 0.0
2015-Mar-06 06:30N 50°53' W 001°24'0 0.0
2015-Mar-06 05:32N 50°53' W 001°24'0 0.0
2015-Mar-06 04:34N 50°53' W 001°24'1 1.2
2015-Mar-06 03:33N 50°52' W 001°23'9 8.7
2015-Mar-06 02:33N 50°46' W 001°13'1312.8
2015-Mar-06 01:33N 50°39' W 000°56'4 4.0
2015-Mar-06 00:33N 50°36' W 000°52'7 6.8
2015-Mar-05 23:33N 50°35' W 000°41'7 7.5
2015-Mar-05 22:33N 50°34' W 000°30'7 7.3
2015-Mar-05 21:33N 50°33' W 000°18'1613.5
2015-Mar-05 20:24N 50°32' E 000°06'1315.4
2015-Mar-05 19:33N 50°34' E 000°26'1717.1
2015-Mar-05 18:33N 50°42' E 000°50'1918.5
2015-Mar-05 17:33N 50°52' E 001°14'1818.4
2015-Mar-05 16:34N 51°06' E 001°35'1716.5
2015-Mar-05 15:34N 51°19' E 001°51'1515.2
2015-Mar-05 14:33N 51°32' E 002°04'1615.2
2015-Mar-05 13:32N 51°43' E 002°22'1515.6
2015-Mar-05 12:33N 51°55' E 002°37'1716.7
2015-Mar-05 11:32N 52°09' E 002°54'1817.9
2015-Mar-05 10:31N 52°22' E 003°13'1717.6
2015-Mar-05 09:34N 52°36' E 003°30'3718.0
2015-Mar-05 07:31N 53°03' E 004°10'1616.6
2015-Mar-05 06:33N 53°16' E 004°27'1616.1
2015-Mar-05 05:34N 53°29' E 004°41'1615.7
2015-Mar-05 04:34N 53°36' E 005°05'1716.8
2015-Mar-05 03:34N 53°42' E 005°32'1817.6
2015-Mar-05 02:33N 53°47' E 006°00'4417.5
2015-Mar-05 00:04N 53°56' E 007°12'916.7
2015-Mar-04 23:33N 53°58' E 007°27'1212.4
2015-Mar-04 22:33N 53°53' E 007°46'1413.6
2015-Mar-04 21:33N 53°49' E 008°08'1413.7
2015-Mar-04 20:33N 53°39' E 008°24'7 7.1
2015-Mar-04 19:33N 53°34' E 008°33'0 0.4
2015-Mar-04 18:33N 53°35' E 008°33'0 0.0
2015-Mar-04 17:33N 53°35' E 008°33'0 0.0
2015-Mar-04 16:33N 53°35' E 008°33'0 0.0
2015-Mar-04 15:33N 53°35' E 008°33'0 0.0
2015-Mar-04 14:33N 53°35' E 008°33'0 0.0
2015-Mar-04 13:33N 53°35' E 008°33'0 0.0
2015-Mar-04 12:33N 53°35' E 008°33'0 0.0
2015-Mar-04 11:33N 53°35' E 008°33'0 0.0
2015-Mar-04 10:33N 53°35' E 008°33'0 0.0
2015-Mar-04 09:30N 53°35' E 008°33'0 0.0
2015-Mar-04 08:33N 53°35' E 008°33'0 0.0
2015-Mar-04 07:33N 53°35' E 008°33'0 0.0
2015-Mar-04 06:33N 53°35' E 008°33'0 0.0
2015-Mar-04 05:33N 53°35' E 008°33'0 0.0
2015-Mar-04 04:33N 53°35' E 008°33'0 0.0
2015-Mar-04 03:33N 53°35' E 008°33'0 0.0
2015-Mar-04 02:33N 53°35' E 008°33'0 0.0
2015-Mar-04 01:33N 53°35' E 008°33'0 0.0
2015-Mar-04 00:33N 53°35' E 008°33'0 0.0
2015-Mar-03 23:33N 53°35' E 008°33'0 0.0
2015-Mar-03 22:30N 53°35' E 008°33'0 0.0
2015-Mar-03 21:33N 53°35' E 008°33'0 0.0
2015-Mar-03 20:33N 53°35' E 008°33'0 0.0
2015-Mar-03 19:33N 53°35' E 008°33'0 0.0
2015-Mar-03 18:33N 53°35' E 008°33'0 0.0
2015-Mar-03 17:33N 53°35' E 008°33'0 0.0
2015-Mar-03 16:33N 53°35' E 008°33'0 0.0
2015-Mar-03 15:33N 53°35' E 008°33'0 0.0
2015-Mar-03 14:33N 53°35' E 008°33'0 0.0
2015-Mar-03 13:33N 53°35' E 008°33'0 0.0
2015-Mar-03 12:33N 53°35' E 008°33'0 0.0
2015-Mar-03 11:33N 53°35' E 008°33'0 0.0
2015-Mar-03 10:33N 53°35' E 008°33'0 0.0
2015-Mar-03 09:33N 53°35' E 008°33'0 0.0
2015-Mar-03 08:33N 53°35' E 008°33'  
Track history (hours):
 
Tides and Currents Weather Stations Pressure Air Temp Water Temp Dewpoint Dewpoint Depression Visibility Wind Speed Wind Dir Waves Ship Positions

Sincerity Ace

Last reported at 2015-Mar-13 08:03 UTC. Time now 2015-Mar-30 10:42 UTC.
Position N 36°36' E 014°43'.
Warning: this ship's position is 17 days out of date.

Length 200 m; draft 9.6 m.

Type: Cargo ship. MMSI: 351690000.

Date/timePositionNaut miles runAvg speedWind from/ knotsBaromVisibWave heightAir tempDewpointWater temp
2015-Mar-13 08:03N 36°36' E 014°43'918.6
2015-Mar-13 07:33N 36°39' E 014°32'1918.6
2015-Mar-13 06:33N 36°47' E 014°11'1918.8
2015-Mar-13 05:33N 36°56' E 013°50'7618.6
2015-Mar-13 01:28N 37°30' E 012°25'17717.8
2015-Mar-12 15:30N 38°34' E 008°55'1817.7
2015-Mar-12 14:28N 38°41' E 008°34'1818.0
2015-Mar-12 13:29N 38°48' E 008°13'18918.3
2015-Mar-12 03:09N 40°16' E 004°36'1118.0
2015-Mar-12 02:33N 40°21' E 004°24'4618.7
2015-Mar-12 00:07N 40°43' E 003°31'1018.6
2015-Mar-11 23:33N 40°48' E 003°19'1818.2
2015-Mar-11 22:33N 40°56' E 002°57'1818.3
2015-Mar-11 21:33N 41°05' E 002°37'1918.4
2015-Mar-11 20:33N 41°15' E 002°15'7 7.4
2015-Mar-11 19:33N 41°20' E 002°09'0 0.1
2015-Mar-11 18:33N 41°20' E 002°09'0 0.0
2015-Mar-11 17:27N 41°20' E 002°09'0 0.0
2015-Mar-11 16:33N 41°20' E 002°09'0 0.0
2015-Mar-11 15:21N 41°20' E 002°09'0 0.0
2015-Mar-11 14:33N 41°20' E 002°09'0 0.0
2015-Mar-11 13:15N 41°20' E 002°09'0 0.0
2015-Mar-11 12:27N 41°20' E 002°09'0 0.0
2015-Mar-11 11:33N 41°20' E 002°09'1 0.8
2015-Mar-11 10:33N 41°21' E 002°10'6 6.4
2015-Mar-11 09:33N 41°16' E 002°16'1 1.0
2015-Mar-11 08:33N 41°16' E 002°17'1 0.6
2015-Mar-11 07:34N 41°15' E 002°16'1 0.7
2015-Mar-11 06:33N 41°15' E 002°15'1 1.0
2015-Mar-11 05:32N 41°14' E 002°15'1 0.8
2015-Mar-11 04:33N 41°13' E 002°14'1 0.8
2015-Mar-11 03:33N 41°12' E 002°14'1 0.7
2015-Mar-11 02:33N 41°12' E 002°14'1 0.8
2015-Mar-11 01:33N 41°11' E 002°14'1 0.6
2015-Mar-11 00:33N 41°11' E 002°13'1 0.8
2015-Mar-10 23:33N 41°11' E 002°12'5 4.5
2015-Mar-10 22:33N 41°09' E 002°07'1616.4
2015-Mar-10 21:33N 40°54' E 001°57'1717.3
2015-Mar-10 20:33N 40°39' E 001°46'1717.3
2015-Mar-10 19:33N 40°24' E 001°36'1717.0
2015-Mar-10 18:33N 40°09' E 001°26'1717.2
2015-Mar-10 17:33N 39°53' E 001°15'1817.8
2015-Mar-10 16:33N 39°38' E 001°04'1817.8
2015-Mar-10 15:33N 39°22' E 000°54'1818.0
2015-Mar-10 14:33N 39°06' E 000°44'3517.6
2015-Mar-10 12:33N 38°35' E 000°21'1717.4
2015-Mar-10 11:33N 38°20' E 000°09'1717.3
2015-Mar-10 10:33N 38°05' W 000°01'1717.1
2015-Mar-10 09:33N 37°52' W 000°15'1717.1
2015-Mar-10 08:33N 37°38' W 000°27'1616.5
2015-Mar-10 07:33N 37°26' W 000°41'1717.3
2015-Mar-10 06:33N 37°14' W 000°57'1817.6
2015-Mar-10 05:33N 37°03' W 001°14'1817.8
2015-Mar-10 04:33N 36°51' W 001°31'18417.6
2015-Mar-09 18:04N 35°60' W 005°10'1020.0
2015-Mar-09 17:33N 35°58' W 005°23'5317.2
2015-Mar-09 14:30N 35°56' W 006°28'1617.3
2015-Mar-09 13:33N 35°60' W 006°47'1717.2
2015-Mar-09 12:33N 36°05' W 007°08'1717.4
2015-Mar-09 11:33N 36°10' W 007°28'1717.2
2015-Mar-09 10:33N 36°14' W 007°49'1717.2
2015-Mar-09 09:33N 36°19' W 008°09'1716.9
2015-Mar-09 08:33N 36°23' W 008°30'1717.0
2015-Mar-09 07:33N 36°28' W 008°50'1717.1
2015-Mar-09 06:33N 36°34' W 009°10'1616.2
2015-Mar-09 05:33N 36°44' W 009°26'1717.2
2015-Mar-09 04:33N 36°59' W 009°36'1717.5
2015-Mar-09 03:33N 37°16' W 009°41'1817.8
2015-Mar-09 02:33N 37°34' W 009°46'1717.2
2015-Mar-09 01:33N 37°50' W 009°51'1817.4
2015-Mar-09 00:33N 38°07' W 009°56'1817.9
2015-Mar-08 23:33N 38°25' W 010°01'1717.4
2015-Mar-08 22:33N 38°41' W 010°07'1917.6
2015-Mar-08 21:28N 39°00' W 010°08'1617.6
2015-Mar-08 20:33N 39°17' W 010°09'1717.3
2015-Mar-08 19:33N 39°34' W 010°09'1817.5
2015-Mar-08 18:31N 39°52' W 010°09'7017.6
2015-Mar-08 14:33N 41°02' W 010°09'4017.7
2015-Mar-08 12:18N 41°42' W 010°07'19916.9
2015-Mar-08 00:33N 44°54' W 008°56'1716.8
2015-Mar-07 23:33N 45°09' W 008°44'1716.7
2015-Mar-07 22:33N 45°23' W 008°33'5117.1
2015-Mar-07 19:33N 46°09' W 007°59'1717.1
2015-Mar-07 18:33N 46°24' W 007°47'2017.2
2015-Mar-07 17:24N 46°42' W 007°35'4916.9
2015-Mar-07 14:29N 47°25' W 007°00'9117.1
2015-Mar-07 09:11N 48°44' W 005°55'4115.5
2015-Mar-07 06:33N 49°10' W 005°08'13215.7
2015-Mar-06 22:09N 50°11' W 002°07'813.8
2015-Mar-06 21:33N 50°15' W 001°55'1813.6
2015-Mar-06 20:15N 50°23' W 001°31'1014.1
2015-Mar-06 19:33N 50°28' W 001°18'1514.5
2015-Mar-06 18:33N 50°36' W 000°59'8 7.8
2015-Mar-06 17:33N 50°44' W 001°03'1010.1
2015-Mar-06 16:31N 50°48' W 001°18'6 6.5
2015-Mar-06 15:33N 50°53' W 001°24'0 0.0
2015-Mar-06 14:33N 50°53' W 001°24'0 0.0
2015-Mar-06 13:30N 50°53' W 001°24'0 0.0
2015-Mar-06 12:33N 50°53' W 001°24'0 0.0
2015-Mar-06 11:30N 50°53' W 001°24'0 0.0
2015-Mar-06 10:33N 50°53' W 001°24'0 0.0
2015-Mar-06 09:30N 50°53' W 001°24'0 0.0
2015-Mar-06 08:33N 50°53' W 001°24'0 0.0
2015-Mar-06 07:33N 50°53' W 001°24'0 0.0
2015-Mar-06 06:30N 50°53' W 001°24'0 0.0
2015-Mar-06 05:32N 50°53' W 001°24'0 0.0
2015-Mar-06 04:34N 50°53' W 001°24'1 1.2
2015-Mar-06 03:33N 50°52' W 001°23'9 8.7
2015-Mar-06 02:33N 50°46' W 001°13'1312.8
2015-Mar-06 01:33N 50°39' W 000°56'4 4.0
2015-Mar-06 00:33N 50°36' W 000°52'7 6.8
2015-Mar-05 23:33N 50°35' W 000°41'7 7.5
2015-Mar-05 22:33N 50°34' W 000°30'7 7.3
2015-Mar-05 21:33N 50°33' W 000°18'1613.5
2015-Mar-05 20:24N 50°32' E 000°06'1315.4
2015-Mar-05 19:33N 50°34' E 000°26'1717.1
2015-Mar-05 18:33N 50°42' E 000°50'1918.5
2015-Mar-05 17:33N 50°52' E 001°14'1818.4
2015-Mar-05 16:34N 51°06' E 001°35'1716.5
2015-Mar-05 15:34N 51°19' E 001°51'1515.2
2015-Mar-05 14:33N 51°32' E 002°04'1615.2
2015-Mar-05 13:32N 51°43' E 002°22'1515.6
2015-Mar-05 12:33N 51°55' E 002°37'1716.7
2015-Mar-05 11:32N 52°09' E 002°54'1817.9
2015-Mar-05 10:31N 52°22' E 003°13'1717.6
2015-Mar-05 09:34N 52°36' E 003°30'3718.0
2015-Mar-05 07:31N 53°03' E 004°10'1616.6
2015-Mar-05 06:33N 53°16' E 004°27'1616.1
2015-Mar-05 05:34N 53°29' E 004°41'1615.7
2015-Mar-05 04:34N 53°36' E 005°05'1716.8
2015-Mar-05 03:34N 53°42' E 005°32'1817.6
2015-Mar-05 02:33N 53°47' E 006°00'4417.5
2015-Mar-05 00:04N 53°56' E 007°12'916.7
2015-Mar-04 23:33N 53°58' E 007°27'1212.4
2015-Mar-04 22:33N 53°53' E 007°46'1413.6
2015-Mar-04 21:33N 53°49' E 008°08'1413.7
2015-Mar-04 20:33N 53°39' E 008°24'7 7.1
2015-Mar-04 19:33N 53°34' E 008°33'0 0.4
2015-Mar-04 18:33N 53°35' E 008°33'0 0.0
2015-Mar-04 17:33N 53°35' E 008°33'0 0.0
2015-Mar-04 16:33N 53°35' E 008°33'0 0.0
2015-Mar-04 15:33N 53°35' E 008°33'0 0.0
2015-Mar-04 14:33N 53°35' E 008°33'0 0.0
2015-Mar-04 13:33N 53°35' E 008°33'0 0.0
2015-Mar-04 12:33N 53°35' E 008°33'0 0.0
2015-Mar-04 11:33N 53°35' E 008°33'0 0.0
2015-Mar-04 10:33N 53°35' E 008°33'0 0.0
2015-Mar-04 09:30N 53°35' E 008°33'0 0.0
2015-Mar-04 08:33N 53°35' E 008°33'0 0.0
2015-Mar-04 07:33N 53°35' E 008°33'0 0.0
2015-Mar-04 06:33N 53°35' E 008°33'0 0.0
2015-Mar-04 05:33N 53°35' E 008°33'0 0.0
2015-Mar-04 04:33N 53°35' E 008°33'0 0.0
2015-Mar-04 03:33N 53°35' E 008°33'0 0.0
2015-Mar-04 02:33N 53°35' E 008°33'0 0.0
2015-Mar-04 01:33N 53°35' E 008°33'0 0.0
2015-Mar-04 00:33N 53°35' E 008°33'0 0.0
2015-Mar-03 23:33N 53°35' E 008°33'0 0.0
2015-Mar-03 22:30N 53°35' E 008°33'0 0.0
2015-Mar-03 21:33N 53°35' E 008°33'0 0.0
2015-Mar-03 20:33N 53°35' E 008°33'0 0.0
2015-Mar-03 19:33N 53°35' E 008°33'0 0.0
2015-Mar-03 18:33N 53°35' E 008°33'0 0.0
2015-Mar-03 17:33N 53°35' E 008°33'0 0.0
2015-Mar-03 16:33N 53°35' E 008°33'0 0.0
2015-Mar-03 15:33N 53°35' E 008°33'0 0.0
2015-Mar-03 14:33N 53°35' E 008°33'0 0.0
2015-Mar-03 13:33N 53°35' E 008°33'0 0.0
2015-Mar-03 12:33N 53°35' E 008°33'0 0.0
2015-Mar-03 11:33N 53°35' E 008°33'0 0.0
2015-Mar-03 10:33N 53°35' E 008°33'0 0.0
2015-Mar-03 09:33N 53°35' E 008°33'0 0.0
2015-Mar-03 08:33N 53°35' E 008°33'  

Dump ship's entire track history